createdAt,value
2022-10-10T00:01:25.254Z,97458.28
2022-10-10T00:03:53.530Z,97466.25
2022-10-10T00:06:22.144Z,97465.28
2022-10-10T00:08:51.997Z,97460.81
2022-10-10T00:11:23.425Z,97456.31
2022-10-10T00:13:51.730Z,97460.47
2022-10-10T00:16:20.319Z,97464.84
2022-10-10T00:18:48.626Z,97455.50
2022-10-10T00:21:16.924Z,97464.00
2022-10-10T00:23:45.188Z,97455.84
2022-10-10T00:26:18.977Z,97457.31
2022-10-10T00:29:05.577Z,97461.94
2022-10-10T00:31:33.842Z,97462.06
2022-10-10T00:34:02.101Z,97463.53
2022-10-10T00:36:30.358Z,97459.16
2022-10-10T00:38:58.605Z,97462.72
2022-10-10T00:41:29.152Z,97465.53
2022-10-10T00:44:04.251Z,97455.59
2022-10-10T00:46:32.788Z,97465.09
2022-10-10T00:49:01.048Z,97458.47
2022-10-10T00:51:29.334Z,97461.16
2022-10-10T00:53:59.543Z,97459.97
2022-10-10T00:56:30.470Z,97465.94
2022-10-10T00:58:59.438Z,97465.59
2022-10-10T01:01:27.751Z,97464.34
2022-10-10T01:03:58.651Z,97452.34
2022-10-10T01:06:27.207Z,97453.91
2022-10-10T01:08:55.485Z,97452.81
2022-10-10T01:11:33.333Z,97451.03
2022-10-10T01:14:04.138Z,97447.06
2022-10-10T01:16:37.277Z,97444.56
2022-10-10T01:19:09.601Z,97441.44
2022-10-10T01:21:39.330Z,97445.44
2022-10-10T01:24:27.766Z,97446.94
2022-10-10T01:27:12.373Z,97449.72
2022-10-10T01:29:44.198Z,97453.38
2022-10-10T01:32:17.734Z,97451.66
2022-10-10T01:34:52.695Z,97444.50
2022-10-10T01:37:22.018Z,97446.59
2022-10-10T01:39:56.049Z,97443.94
2022-10-10T01:42:26.700Z,97441.50
2022-10-10T01:44:56.528Z,97443.41
2022-10-10T01:47:24.808Z,97436.59
2022-10-10T01:49:55.747Z,97444.56
2022-10-10T01:52:31.614Z,97437.44
2022-10-10T01:55:07.702Z,97430.94
2022-10-10T01:57:39.332Z,97430.81
2022-10-10T02:00:09.860Z,97433.47
2022-10-10T02:02:43.270Z,97428.34
2022-10-10T02:05:16.811Z,97426.22
2022-10-10T02:07:46.245Z,97419.13
2022-10-10T02:10:14.902Z,97420.56
2022-10-10T02:12:43.138Z,97414.75
2022-10-10T02:15:15.671Z,97417.94
2022-10-10T02:17:44.763Z,97420.34
2022-10-10T02:20:13.932Z,97421.19
2022-10-10T02:22:42.981Z,97414.56
2022-10-10T02:25:11.281Z,97417.47
2022-10-10T02:27:40.920Z,97419.91
2022-10-10T02:30:10.191Z,97424.28
2022-10-10T02:32:42.443Z,97418.13
2022-10-10T02:35:11.668Z,97419.69
2022-10-10T02:37:40.303Z,97417.59
2022-10-10T02:40:09.335Z,97413.13
2022-10-10T02:42:37.590Z,97417.47
2022-10-10T02:45:06.478Z,97412.03
2022-10-10T02:47:34.747Z,97415.44
2022-10-10T02:50:04.389Z,97415.31
2022-10-10T02:52:32.938Z,97413.81
2022-10-10T02:55:01.233Z,97407.66
2022-10-10T02:57:29.456Z,97406.13
2022-10-10T02:59:57.651Z,97406.69
2022-10-10T03:02:26.164Z,97403.81
2022-10-10T03:04:54.375Z,97405.75
2022-10-10T03:07:23.976Z,97395.75
2022-10-10T03:09:52.189Z,97397.56
2022-10-10T03:12:20.457Z,97400.91
2022-10-10T03:14:48.660Z,97395.78
2022-10-10T03:17:16.883Z,97393.63
2022-10-10T03:19:45.198Z,97392.41
2022-10-10T03:22:13.401Z,97390.00
2022-10-10T03:24:43.278Z,97394.09
2022-10-10T03:27:11.470Z,97390.84
2022-10-10T03:29:39.697Z,97391.28
2022-10-10T03:32:10.879Z,97395.47
2022-10-10T03:34:39.479Z,97388.41
2022-10-10T03:37:07.690Z,97397.16
2022-10-10T03:39:36.197Z,97398.22
2022-10-10T03:42:05.842Z,97392.00
2022-10-10T03:44:34.069Z,97389.16
2022-10-10T03:47:02.269Z,97399.69
2022-10-10T03:49:30.644Z,97400.94
2022-10-10T03:52:00.663Z,97395.69
2022-10-10T03:54:28.956Z,97395.69
2022-10-10T03:56:57.156Z,97389.72
2022-10-10T03:59:26.815Z,97396.88
2022-10-10T04:01:55.693Z,97393.63
2022-10-10T04:04:23.910Z,97398.59
2022-10-10T04:06:52.137Z,97401.53
2022-10-10T04:09:20.630Z,97397.16
2022-10-10T04:11:48.860Z,97394.72
2022-10-10T04:14:17.107Z,97389.00
2022-10-10T04:16:46.713Z,97389.00
2022-10-10T04:19:15.231Z,97386.00
2022-10-10T04:21:43.452Z,97387.16
2022-10-10T04:24:11.716Z,97382.69
2022-10-10T04:26:40.221Z,97379.63
2022-10-10T04:29:09.090Z,97377.22
2022-10-10T04:31:37.333Z,97381.47
2022-10-10T04:34:06.937Z,97374.53
2022-10-10T04:36:35.194Z,97372.84
2022-10-10T04:39:03.422Z,97375.50
2022-10-10T04:41:31.659Z,97373.31
2022-10-10T04:43:59.863Z,97374.66
2022-10-10T04:46:28.117Z,97368.75
2022-10-10T04:48:56.343Z,97368.34
2022-10-10T04:51:25.955Z,97373.81
2022-10-10T04:53:54.157Z,97371.00
2022-10-10T04:56:22.396Z,97376.72
2022-10-10T04:58:51.558Z,97370.66
2022-10-10T05:01:19.820Z,97375.78
2022-10-10T05:03:48.074Z,97361.19
2022-10-10T05:06:16.291Z,97368.88
2022-10-10T05:08:46.118Z,97370.69
2022-10-10T05:11:14.346Z,97372.25
2022-10-10T05:13:42.542Z,97378.47
2022-10-10T05:16:10.775Z,97372.72
2022-10-10T05:18:39.208Z,97379.31
2022-10-10T05:21:07.970Z,97378.94
2022-10-10T05:23:36.352Z,97380.84
2022-10-10T05:26:06.066Z,97378.94
2022-10-10T05:28:35.482Z,97374.31
2022-10-10T05:31:03.708Z,97375.28
2022-10-10T05:33:31.902Z,97375.09
2022-10-10T05:36:04.725Z,97381.16
2022-10-10T05:38:32.965Z,97374.84
2022-10-10T05:43:48.451Z,97387.72
2022-10-10T05:46:16.693Z,97378.28
2022-10-10T05:48:44.937Z,97380.66
2022-10-10T05:51:13.653Z,97377.75
2022-10-10T05:53:41.876Z,97382.66
2022-10-10T05:56:11.697Z,97381.06
2022-10-10T05:58:44.584Z,97387.72
2022-10-10T06:01:15.869Z,97387.72
2022-10-10T06:03:56.243Z,97388.09
2022-10-10T06:06:24.608Z,97383.22
2022-10-10T06:11:39.082Z,97388.69
2022-10-10T06:14:07.281Z,97382.00
2022-10-10T06:19:22.882Z,97384.56
2022-10-10T06:21:51.102Z,97385.13
2022-10-10T06:24:19.321Z,97385.41
2022-10-10T06:26:47.527Z,97380.75
2022-10-10T06:29:15.748Z,97386.31
2022-10-10T06:31:45.324Z,97393.63
2022-10-10T06:34:13.857Z,97391.53
2022-10-10T06:36:42.096Z,97397.09
2022-10-10T06:39:10.352Z,97402.09
2022-10-10T06:41:38.563Z,97398.56
2022-10-10T06:44:07.829Z,97396.50
2022-10-10T06:46:37.523Z,97395.63
2022-10-10T06:49:07.136Z,97403.25
2022-10-10T06:51:36.493Z,97399.72
2022-10-10T06:54:04.804Z,97401.75
2022-10-10T06:56:33.518Z,97400.66
2022-10-10T06:59:22.965Z,97397.47
2022-10-10T07:01:52.230Z,97401.47
2022-10-10T07:04:21.978Z,97401.78
2022-10-10T07:06:51.130Z,97399.31
2022-10-10T07:09:20.307Z,97398.16
2022-10-10T07:11:48.531Z,97402.91
2022-10-10T07:14:16.784Z,97403.59
2022-10-10T07:16:45.068Z,97406.34
2022-10-10T07:19:13.284Z,97408.78
2022-10-10T07:22:00.849Z,97409.19
2022-10-10T07:24:29.634Z,97404.84
2022-10-10T07:27:09.824Z,97404.94
2022-10-10T07:29:38.330Z,97405.59
2022-10-10T07:32:06.894Z,97403.13
2022-10-10T07:34:37.734Z,97407.13
2022-10-10T07:37:26.152Z,97413.88
2022-10-10T07:39:54.438Z,97415.31
2022-10-10T07:42:22.747Z,97414.44
2022-10-10T07:44:54.292Z,97409.63
2022-10-10T07:47:24.844Z,97417.16
2022-10-10T07:49:58.731Z,97408.69
2022-10-10T07:52:32.429Z,97407.84
2022-10-10T07:55:05.085Z,97405.88
2022-10-10T07:57:36.346Z,97415.19
2022-10-10T08:00:05.985Z,97415.50
2022-10-10T08:02:38.531Z,97406.59
2022-10-10T08:05:12.846Z,97414.81
2022-10-10T08:07:42.538Z,97410.00
2022-10-10T08:10:13.676Z,97415.22
2022-10-10T08:12:42.336Z,97411.78
2022-10-10T08:15:19.921Z,97407.41
2022-10-10T08:17:48.708Z,97406.09
2022-10-10T08:25:52.739Z,97414.59
2022-10-10T08:28:21.033Z,97396.50
2022-10-10T08:30:49.305Z,97399.16
2022-10-10T08:33:17.506Z,97404.88
2022-10-10T08:35:45.724Z,97405.59
2022-10-10T08:38:15.296Z,97401.47
2022-10-10T08:40:44.090Z,97409.28
2022-10-10T08:43:15.486Z,97410.13
2022-10-10T08:45:43.696Z,97411.94
2022-10-10T08:48:13.493Z,97419.28
2022-10-10T08:50:43.554Z,97420.97
2022-10-10T08:53:16.055Z,97410.53
2022-10-10T08:55:44.996Z,97407.94
2022-10-10T08:58:17.004Z,97398.50
2022-10-10T09:00:49.310Z,97404.09
2022-10-10T09:03:54.955Z,97404.78
2022-10-10T09:06:32.237Z,97405.38
2022-10-10T09:09:06.518Z,97409.56
2022-10-10T09:11:42.702Z,97415.78
2022-10-10T09:14:17.595Z,97402.91
2022-10-10T09:16:49.906Z,97419.16
2022-10-10T09:19:25.835Z,97416.59
2022-10-10T09:21:56.634Z,97421.81
2022-10-10T09:24:27.566Z,97429.28
2022-10-10T09:26:57.133Z,97432.44
2022-10-10T09:29:29.284Z,97434.25
2022-10-10T09:31:59.524Z,97443.31
2022-10-10T09:34:33.484Z,97439.38
2022-10-10T09:37:02.976Z,97441.38
2022-10-10T09:39:36.781Z,97441.66
2022-10-10T09:42:06.743Z,97439.50
2022-10-10T09:44:34.939Z,97428.97
2022-10-10T09:47:06.087Z,97431.44
2022-10-10T09:49:34.584Z,97421.97
2022-10-10T09:52:23.004Z,97423.59
2022-10-10T09:54:53.119Z,97434.09
2022-10-10T09:57:21.379Z,97432.56
2022-10-10T09:59:49.679Z,97434.72
2022-10-10T10:02:21.870Z,97439.47
2022-10-10T10:04:50.383Z,97426.06
2022-10-10T10:07:21.609Z,97427.88
2022-10-10T10:09:50.699Z,97422.84
2022-10-10T10:12:22.621Z,97427.22
2022-10-10T10:14:50.880Z,97425.31
2022-10-10T10:17:20.078Z,97429.69
2022-10-10T10:19:48.292Z,97433.69
2022-10-10T10:22:31.392Z,97426.66
2022-10-10T10:24:59.681Z,97425.84
2022-10-10T10:27:29.720Z,97436.81
2022-10-10T10:30:15.965Z,97431.03
2022-10-10T10:32:48.021Z,97432.53
2022-10-10T10:35:21.592Z,97435.38
2022-10-10T10:38:14.225Z,97442.06
2022-10-10T10:40:43.635Z,97435.00
2022-10-10T10:43:29.856Z,97436.00
2022-10-10T10:46:05.147Z,97433.00
2022-10-10T10:48:48.616Z,97435.34
2022-10-10T10:51:26.940Z,97427.75
2022-10-10T10:53:58.322Z,97435.38
2022-10-10T10:56:29.121Z,97437.72
2022-10-10T11:01:58.706Z,97443.81
2022-10-10T11:05:24.363Z,97442.66
2022-10-10T11:07:31.021Z,97443.19
2022-10-10T11:10:02.946Z,97446.53
2022-10-10T11:12:42.106Z,97443.53
2022-10-10T11:15:15.595Z,97436.25
2022-10-10T11:18:02.697Z,97437.59
2022-10-10T11:20:32.428Z,97428.81
2022-10-10T11:23:07.974Z,97428.94
2022-10-10T11:25:55.490Z,97429.59
2022-10-10T11:28:27.964Z,97425.47
2022-10-10T11:30:58.908Z,97418.28
2022-10-10T11:33:29.445Z,97423.97
2022-10-10T11:36:01.331Z,97426.47
2022-10-10T11:38:31.790Z,97426.72
2022-10-10T11:41:01.467Z,97430.44
2022-10-10T11:43:35.645Z,97434.25
2022-10-10T11:46:10.272Z,97427.97
2022-10-10T11:48:43.265Z,97424.41
2022-10-10T11:51:18.332Z,97436.69
2022-10-10T11:53:48.539Z,97427.34
2022-10-10T11:56:19.717Z,97426.81
2022-10-10T11:58:51.052Z,97428.16
2022-10-10T12:01:22.751Z,97421.94
2022-10-10T12:06:39.823Z,97434.91
2022-10-10T12:09:11.230Z,97434.78
2022-10-10T12:11:42.138Z,97433.66
2022-10-10T12:14:10.953Z,97437.69
2022-10-10T12:16:40.539Z,97433.84
2022-10-10T12:19:17.889Z,97432.19
2022-10-10T12:21:56.066Z,97432.47
2022-10-10T12:24:24.841Z,97419.44
2022-10-10T12:27:12.371Z,97417.22
2022-10-10T12:29:42.589Z,97424.09
2022-10-10T12:32:25.108Z,97422.03
2022-10-10T12:35:02.140Z,97414.69
2022-10-10T12:37:34.695Z,97426.63
2022-10-10T12:40:21.823Z,97426.81
2022-10-10T12:43:02.542Z,97434.88
2022-10-10T12:45:56.971Z,97426.91
2022-10-10T12:48:26.591Z,97420.13
2022-10-10T12:50:56.821Z,97429.88
2022-10-10T12:53:25.708Z,97434.56
2022-10-10T12:55:54.913Z,97430.56
2022-10-10T12:58:27.460Z,97425.91
2022-10-10T13:00:56.859Z,97430.84
2022-10-10T13:03:29.170Z,97423.00
2022-10-10T13:06:19.550Z,97418.19
2022-10-10T13:08:47.771Z,97416.00
2022-10-10T13:11:17.434Z,97420.00
2022-10-10T13:13:51.045Z,97419.66
2022-10-10T13:16:20.220Z,97424.56
2022-10-10T13:18:52.341Z,97428.13
2022-10-10T13:21:22.801Z,97417.03
2022-10-10T13:26:58.661Z,97414.38
2022-10-10T13:29:28.652Z,97404.00
2022-10-10T13:32:00.174Z,97405.00
2022-10-10T13:34:31.038Z,97417.72
2022-10-10T13:37:00.715Z,97421.19
2022-10-10T13:39:30.186Z,97420.22
2022-10-10T13:41:58.477Z,97409.41
2022-10-10T13:44:27.655Z,97418.31
2022-10-10T13:46:55.883Z,97420.13
2022-10-10T13:49:25.531Z,97420.13
2022-10-10T13:52:04.502Z,97422.13
2022-10-10T13:54:40.670Z,97431.78
2022-10-10T13:57:13.871Z,97430.78
2022-10-10T14:00:02.713Z,97432.81
2022-10-10T14:02:31.889Z,97430.06
2022-10-10T14:05:00.136Z,97434.03
2022-10-10T14:07:30.546Z,97441.06
2022-10-10T14:09:59.824Z,97450.91
2022-10-10T14:12:29.468Z,97451.00
2022-10-10T14:14:58.738Z,97451.84
2022-10-10T14:17:27.679Z,97452.69
2022-10-10T14:19:56.116Z,97452.94
2022-10-10T14:22:24.345Z,97442.34
2022-10-10T14:24:54.280Z,97446.13
2022-10-10T14:27:25.712Z,97445.75
2022-10-10T14:29:54.635Z,97448.97
2022-10-10T14:32:23.140Z,97442.03
2022-10-10T14:34:51.376Z,97437.44
2022-10-10T14:37:20.843Z,97438.88
2022-10-10T14:39:49.082Z,97436.22
2022-10-10T14:42:19.261Z,97439.38
2022-10-10T14:44:47.781Z,97439.34
2022-10-10T14:52:53.902Z,97456.06
2022-10-10T14:55:22.268Z,97452.34
2022-10-10T14:57:52.147Z,97469.03
2022-10-10T15:00:25.293Z,97463.06
2022-10-10T15:02:56.960Z,97462.34
2022-10-10T15:05:25.351Z,97461.31
2022-10-10T15:07:53.992Z,97467.66
2022-10-10T15:10:37.587Z,97467.50
2022-10-10T15:13:07.204Z,97465.97
2022-10-10T15:15:36.030Z,97462.63
2022-10-10T15:18:04.251Z,97483.53
2022-10-10T15:20:32.450Z,97494.56
2022-10-10T15:23:00.731Z,97494.31
2022-10-10T15:25:33.304Z,97503.38
2022-10-10T15:28:02.336Z,97510.03
2022-10-10T15:30:32.073Z,97519.41
2022-10-10T15:33:02.492Z,97521.00
2022-10-10T15:36:08.465Z,97516.78
2022-10-10T15:38:37.789Z,97532.66
2022-10-10T15:41:07.525Z,97529.16
2022-10-10T15:43:44.011Z,97520.84
2022-10-10T15:46:13.620Z,97529.84
2022-10-10T15:48:41.927Z,97536.00
2022-10-10T15:51:12.464Z,97535.34
2022-10-10T15:53:45.960Z,97544.91
2022-10-10T15:56:17.806Z,97548.09
2022-10-10T15:58:46.324Z,97562.19
2022-10-10T16:01:16.896Z,97565.56
2022-10-10T16:03:45.293Z,97569.09
2022-10-10T16:06:13.639Z,97567.91
2022-10-10T16:08:41.849Z,97579.91
2022-10-10T16:11:11.562Z,97584.47
2022-10-10T16:13:39.986Z,97589.41
2022-10-10T16:16:09.349Z,97588.38
2022-10-10T16:18:40.535Z,97586.16
2022-10-10T16:21:09.119Z,97587.81
2022-10-10T16:23:37.347Z,97597.16
2022-10-10T16:26:08.807Z,97601.06
2022-10-10T16:28:39.256Z,97603.25
2022-10-10T16:31:08.277Z,97602.66
2022-10-10T16:33:38.934Z,97609.59
2022-10-10T16:36:09.472Z,97623.13
2022-10-10T16:38:38.106Z,97630.22
2022-10-10T16:41:06.872Z,97626.78
2022-10-10T16:43:53.353Z,97638.59
2022-10-10T16:46:23.168Z,97651.59
2022-10-10T16:48:52.796Z,97655.28
2022-10-10T16:51:23.775Z,97648.88
2022-10-10T16:53:52.135Z,97652.84
2022-10-10T16:56:21.437Z,97656.94
2022-10-10T16:58:50.883Z,97657.84
2022-10-10T17:01:21.182Z,97660.06
2022-10-10T17:03:49.553Z,97670.56
2022-10-10T17:06:20.266Z,97673.03
2022-10-10T17:08:48.782Z,97674.41
2022-10-10T17:11:17.932Z,97679.53
2022-10-10T17:13:46.185Z,97683.66
2022-10-10T17:19:05.658Z,97690.13
2022-10-10T17:21:35.241Z,97690.59
2022-10-10T17:24:03.517Z,97702.72
2022-10-10T17:26:31.790Z,97715.59
2022-10-10T17:29:00.285Z,97719.25
2022-10-10T17:31:28.603Z,97717.25
2022-10-10T17:34:06.972Z,97723.16
2022-10-10T17:36:36.583Z,97721.88
2022-10-10T17:39:05.013Z,97732.50
2022-10-10T17:44:23.587Z,97753.56
2022-10-10T17:46:51.866Z,97756.56
2022-10-10T17:49:21.204Z,97759.16
2022-10-10T17:51:50.787Z,97764.97
2022-10-10T17:54:19.208Z,97778.94
2022-10-10T17:56:47.541Z,97781.53
2022-10-10T17:59:15.748Z,97795.97
2022-10-10T18:01:44.495Z,97789.63
2022-10-10T18:04:30.972Z,97808.06
2022-10-10T18:07:00.580Z,97807.41
2022-10-10T18:09:29.083Z,97814.94
2022-10-10T18:11:57.303Z,97819.16
2022-10-10T18:14:26.069Z,97818.63
2022-10-10T18:16:54.326Z,97828.72
2022-10-10T18:19:22.524Z,97841.78
2022-10-10T18:21:50.811Z,97838.91
2022-10-10T18:24:20.730Z,97847.28
2022-10-10T18:26:48.996Z,97849.00
2022-10-10T18:29:17.216Z,97843.63
2022-10-10T18:31:45.760Z,97853.56
2022-10-10T18:34:13.976Z,97842.06
2022-10-10T18:36:42.515Z,97852.41
2022-10-10T18:39:15.660Z,97872.56
2022-10-10T18:41:45.260Z,97882.09
2022-10-10T18:44:14.905Z,97891.88
2022-10-10T18:46:43.113Z,97889.31
2022-10-10T18:49:13.636Z,97897.38
2022-10-10T18:51:43.283Z,97902.69
2022-10-10T18:54:13.426Z,97905.84
2022-10-10T18:56:49.591Z,97915.94
2022-10-10T18:59:18.574Z,97923.31
2022-10-10T19:01:47.046Z,97932.63
2022-10-10T19:04:15.928Z,97944.88
2022-10-10T19:06:44.243Z,97944.22
2022-10-10T19:12:01.241Z,97948.06
2022-10-10T19:14:29.489Z,97950.75
2022-10-10T19:17:00.685Z,97957.53
2022-10-10T19:19:28.880Z,97963.03
2022-10-10T19:21:57.138Z,97968.91
2022-10-10T19:24:25.380Z,97969.03
2022-10-10T19:26:55.868Z,97969.56
2022-10-10T19:29:26.344Z,97980.72
2022-10-10T19:31:54.664Z,97982.44
2022-10-10T19:34:23.059Z,97985.88
2022-10-10T19:36:51.543Z,97983.78
2022-10-10T19:39:19.961Z,97985.63
2022-10-10T19:41:48.284Z,97984.66
2022-10-10T19:44:16.773Z,97989.16
2022-10-10T19:46:46.414Z,97994.19
2022-10-10T19:49:14.664Z,97996.59
2022-10-10T19:51:42.866Z,97996.22
2022-10-10T19:54:11.356Z,98002.47
2022-10-10T19:56:39.584Z,98008.66
2022-10-10T19:59:07.797Z,98014.66
2022-10-10T20:01:36.126Z,98007.19
2022-10-10T20:04:05.801Z,98014.41
2022-10-10T20:06:34.051Z,98018.81
2022-10-10T20:09:02.997Z,98024.91
2022-10-10T20:11:32.512Z,98029.19
2022-10-10T20:14:01.969Z,98034.56
2022-10-10T20:16:30.587Z,98041.63
2022-10-10T20:18:59.327Z,98034.84
2022-10-10T20:21:31.692Z,98042.03
2022-10-10T20:24:00.308Z,98047.88
2022-10-10T20:26:28.525Z,98054.56
2022-10-10T20:28:57.752Z,98053.22
2022-10-10T20:31:26.851Z,98063.47
2022-10-10T20:33:56.460Z,98059.81
2022-10-10T20:36:24.788Z,98064.78
2022-10-10T20:38:54.831Z,98071.09
2022-10-10T20:41:24.494Z,98069.50
2022-10-10T20:43:58.303Z,98074.97
2022-10-10T20:46:44.418Z,98074.88
2022-10-10T20:49:16.204Z,98083.97
2022-10-10T20:51:48.654Z,98097.13
2022-10-10T20:54:18.676Z,98103.00
2022-10-10T20:56:46.948Z,98097.03
2022-10-10T20:59:15.565Z,98098.09
2022-10-10T21:01:45.419Z,98097.81
2022-10-10T21:04:14.194Z,98105.25
2022-10-10T21:06:43.896Z,98109.44
2022-10-10T21:09:12.935Z,98112.00
2022-10-10T21:11:43.072Z,98117.53
2022-10-10T21:14:15.112Z,98114.25
2022-10-10T21:16:43.381Z,98118.84
2022-10-10T21:19:12.982Z,98128.31
2022-10-10T21:21:41.448Z,98128.16
2022-10-10T21:24:11.289Z,98135.22
2022-10-10T21:26:56.772Z,98146.63
2022-10-10T21:29:26.434Z,98139.56
2022-10-10T21:31:55.088Z,98139.09
2022-10-10T21:34:23.309Z,98144.66
2022-10-10T21:36:51.512Z,98146.16
2022-10-10T21:39:20.026Z,98137.72
2022-10-10T21:41:50.414Z,98147.88
2022-10-10T21:44:29.436Z,98152.69
2022-10-10T21:46:59.041Z,98158.56
2022-10-10T21:49:27.315Z,98156.25
2022-10-10T21:51:55.819Z,98165.91
2022-10-10T21:54:24.030Z,98156.94
2022-10-10T21:56:52.293Z,98159.53
2022-10-10T21:59:20.791Z,98158.75
2022-10-10T22:01:49.064Z,98160.56
2022-10-10T22:04:18.712Z,98163.91
2022-10-10T22:06:47.066Z,98170.00
2022-10-10T22:09:15.580Z,98166.91
2022-10-10T22:11:44.473Z,98167.06
2022-10-10T22:14:12.694Z,98171.44
2022-10-10T22:16:42.795Z,98178.72
2022-10-10T22:19:11.666Z,98177.09
2022-10-10T22:21:41.274Z,98174.44
2022-10-10T22:24:09.925Z,98179.16
2022-10-10T22:26:38.636Z,98181.19
2022-10-10T22:29:06.933Z,98185.56
2022-10-10T22:31:37.772Z,98180.88
2022-10-10T22:34:06.593Z,98190.38
2022-10-10T22:36:34.862Z,98190.81
2022-10-10T22:39:04.819Z,98191.38
2022-10-10T22:41:33.331Z,98192.44
2022-10-10T22:44:03.316Z,98185.72
2022-10-10T22:46:31.536Z,98185.81
2022-10-10T22:49:00.065Z,98187.53
2022-10-10T22:51:28.261Z,98194.25
2022-10-10T22:53:56.481Z,98188.47
2022-10-10T22:56:26.387Z,98192.56
2022-10-10T22:58:54.607Z,98197.34
2022-10-10T23:01:23.752Z,98192.84
2022-10-10T23:03:54.475Z,98200.66
2022-10-10T23:06:22.681Z,98198.94
2022-10-10T23:08:50.895Z,98202.03
2022-10-10T23:11:19.381Z,98206.41
2022-10-10T23:13:48.980Z,98209.28
2022-10-10T23:16:17.209Z,98207.06
2022-10-10T23:18:45.734Z,98210.88
2022-10-10T23:21:13.967Z,98211.09
2022-10-10T23:23:42.284Z,98219.41
2022-10-10T23:26:10.595Z,98211.94
2022-10-10T23:28:40.148Z,98220.78
2022-10-10T23:31:10.246Z,98225.59
2022-10-10T23:33:38.757Z,98217.25
2022-10-10T23:36:08.776Z,98225.47
2022-10-10T23:38:37.356Z,98227.28
2022-10-10T23:41:05.663Z,98231.22
2022-10-10T23:43:34.165Z,98232.63
2022-10-10T23:46:02.843Z,98234.34
2022-10-10T23:48:32.667Z,98228.56
2022-10-10T23:51:01.154Z,98233.91
2022-10-10T23:53:29.351Z,98229.94
2022-10-10T23:55:57.610Z,98233.91
2022-10-10T23:58:25.828Z,98243.69
